Time;durP1;ratioP1;P1;durP2;ratioP2;P2;SDS_P1;SDS_P2;PMS_P1;PMS_P2;Temp;Humidity;BMP_temperature;BMP_pressure;BME280_temperature;BME280_humidity;BME280_pressure;Samples;Min_cycle;Max_cycle;Signal;HPM_P1;HPM_P2
2023/12/08 00:00:14;;;;;;;99.63;41.70;;;0.30;1.00;;;;;;10394851;28;20197;-84
2023/12/08 00:05:35;;;;;;;98.13;40.80;;;0.40;1.00;;;;;;10394714;28;20197;-82
2023/12/08 00:10:57;;;;;;;98.83;40.80;;;0.40;1.00;;;;;;10391499;28;20193;-83
2023/12/08 00:16:18;;;;;;;100.97;42.30;;;0.50;1.00;;;;;;10383903;28;20234;-84
2023/12/08 00:21:39;;;;;;;97.70;42.57;;;0.40;99.90;;;;;;10388276;28;20431;-84
2023/12/08 00:27:01;;;;;;;96.77;42.57;;;0.30;1.00;;;;;;10403044;28;20204;-83
2023/12/08 00:32:22;;;;;;;98.53;43.17;;;0.40;1.00;;;;;;10374728;28;20304;-83
2023/12/08 00:37:43;;;;;;;104.07;41.40;;;0.30;1.00;;;;;;10400382;28;20200;-83
2023/12/08 00:43:05;;;;;;;103.33;42.37;;;0.40;1.00;;;;;;10394080;28;20200;-83
2023/12/08 00:48:26;;;;;;;105.90;41.47;;;0.30;1.00;;;;;;10387901;28;20207;-83
2023/12/08 00:53:47;;;;;;;101.73;40.97;;;0.40;1.00;;;;;;10387292;28;20247;-83
2023/12/08 00:59:09;;;;;;;102.57;40.87;;;0.40;1.00;;;;;;10373848;28;20193;-82
2023/12/08 01:04:30;;;;;;;88.73;38.90;;;0.30;1.00;;;;;;10400798;28;20524;-83
2023/12/08 01:09:52;;;;;;;91.47;38.87;;;0.40;1.00;;;;;;10361232;28;20216;-84
2023/12/08 01:15:13;;;;;;;89.13;38.53;;;0.30;1.00;;;;;;10367586;28;20265;-84
2023/12/08 01:20:36;;;;;;;96.87;42.70;;;0.30;1.00;;;;;;10373233;28;20507;-83
2023/12/08 01:25:57;;;;;;;101.93;41.63;;;0.30;1.00;;;;;;10371588;28;20193;-83
2023/12/08 01:31:19;;;;;;;94.97;42.00;;;0.30;1.00;;;;;;10372481;28;20238;-83
2023/12/08 01:36:41;;;;;;;111.17;44.33;;;0.40;1.00;;;;;;10375513;28;20324;-83
2023/12/08 01:42:03;;;;;;;100.40;43.53;;;0.30;1.00;;;;;;10383036;28;20200;-80
2023/12/08 01:47:25;;;;;;;114.83;44.40;;;0.20;1.00;;;;;;10385869;28;20220;-83
2023/12/08 01:52:49;;;;;;;113.63;45.50;;;0.30;1.00;;;;;;10385203;28;20269;-83
2023/12/08 01:58:10;;;;;;;113.17;43.57;;;0.20;1.00;;;;;;10385193;28;20197;-83
2023/12/08 02:03:35;;;;;;;112.70;43.20;;;0.30;1.00;;;;;;10385092;28;20196;-84
2023/12/08 02:08:58;;;;;;;108.70;42.70;;;0.40;1.00;;;;;;10402662;28;20372;-84
2023/12/08 02:14:20;;;;;;;103.67;41.50;;;0.30;1.00;;;;;;10444343;28;20494;-84
2023/12/08 02:19:43;;;;;;;109.97;45.23;;;0.40;1.00;;;;;;10438242;28;20196;-81
2023/12/08 02:25:04;;;;;;;104.90;39.77;;;0.40;1.00;;;;;;10451939;28;20199;-83
2023/12/08 02:30:26;;;;;;;103.40;41.83;;;0.40;1.00;;;;;;10463905;28;20229;-84
2023/12/08 02:35:48;;;;;;;102.43;40.93;;;0.40;1.00;;;;;;10428162;28;20231;-84
2023/12/08 02:41:09;;;;;;;95.53;39.60;;;0.40;1.00;;;;;;10413443;28;20204;-83
2023/12/08 02:46:31;;;;;;;86.00;36.40;;;0.30;1.00;;;;;;10413332;28;20496;-83
2023/12/08 02:51:53;;;;;;;88.53;37.37;;;0.40;1.00;;;;;;10382707;28;20549;-84
2023/12/08 02:57:14;;;;;;;84.67;36.90;;;0.40;1.00;;;;;;10396042;28;20200;-83
2023/12/08 03:02:35;;;;;;;87.10;38.03;;;0.40;1.00;;;;;;10382288;28;20205;-82
2023/12/08 03:07:56;;;;;;;79.77;35.63;;;0.30;1.00;;;;;;10408945;28;20226;-84
2023/12/08 03:13:18;;;;;;;89.73;36.33;;;0.20;1.00;;;;;;10398074;28;20232;-84
2023/12/08 03:18:39;;;;;;;77.30;34.13;;;0.20;1.00;;;;;;10409791;28;20189;-85
2023/12/08 03:24:00;;;;;;;88.07;35.10;;;0.40;1.00;;;;;;10409485;28;20199;-84
2023/12/08 03:29:22;;;;;;;84.40;37.30;;;0.40;1.00;;;;;;10395466;28;20198;-84
2023/12/08 03:34:43;;;;;;;87.23;36.93;;;0.40;1.00;;;;;;10394321;28;20254;-84
2023/12/08 03:40:05;;;;;;;80.00;36.53;;;0.30;1.00;;;;;;10412062;28;20242;-85
2023/12/08 03:45:26;;;;;;;87.37;34.43;;;0.30;1.00;;;;;;10394822;28;20471;-84
2023/12/08 03:50:48;;;;;;;80.97;36.90;;;0.30;1.00;;;;;;10393890;28;20248;-84
2023/12/08 03:56:09;;;;;;;79.33;36.77;;;0.30;1.00;;;;;;10408605;28;20216;-84
2023/12/08 04:01:30;;;;;;;80.87;35.47;;;0.30;1.00;;;;;;10408913;28;20562;-82
2023/12/08 04:06:51;;;;;;;84.40;37.17;;;0.20;1.00;;;;;;10378942;28;20215;-84
2023/12/08 04:12:13;;;;;;;81.30;35.93;;;0.20;1.00;;;;;;10380064;28;20205;-84
2023/12/08 04:17:34;;;;;;;81.17;34.57;;;0.20;1.00;;;;;;10394181;28;20521;-84
2023/12/08 04:22:55;;;;;;;81.93;36.13;;;0.20;1.00;;;;;;10380158;28;20207;-84
2023/12/08 04:28:17;;;;;;;82.93;35.37;;;0.20;1.00;;;;;;10393735;28;20251;-83
2023/12/08 04:33:38;;;;;;;76.00;33.93;;;0.30;1.00;;;;;;10394060;28;20224;-84
2023/12/08 04:39:00;;;;;;;78.30;33.20;;;0.20;1.00;;;;;;10364337;28;20204;-83
2023/12/08 04:44:22;;;;;;;85.83;35.17;;;0.20;1.00;;;;;;10352621;28;20243;-82
2023/12/08 04:49:43;;;;;;;89.03;35.70;;;0.20;1.00;;;;;;10339326;28;20275;-82
2023/12/08 04:55:05;;;;;;;90.43;35.77;;;0.10;1.00;;;;;;10354721;28;20302;-84
2023/12/08 05:00:26;;;;;;;79.77;34.07;;;0.10;1.00;;;;;;10355097;28;20283;-84
2023/12/08 05:05:48;;;;;;;106.63;43.53;;;0.20;1.00;;;;;;10371661;28;20253;-84
2023/12/08 05:11:09;;;;;;;81.30;36.00;;;0.20;1.00;;;;;;10400457;28;20548;-84
2023/12/08 05:16:31;;;;;;;86.97;37.53;;;0.20;1.00;;;;;;10400704;28;20224;-82
2023/12/08 05:21:52;;;;;;;82.33;35.30;;;0.20;1.00;;;;;;10400036;28;20223;-82
2023/12/08 05:27:13;;;;;;;78.93;34.63;;;0.30;1.00;;;;;;10386061;28;20232;-83
2023/12/08 05:32:35;;;;;;;80.10;35.90;;;0.30;1.00;;;;;;10399540;28;20238;-83
2023/12/08 05:37:57;;;;;;;68.77;31.63;;;0.20;1.00;;;;;;10379914;28;20286;-84
2023/12/08 05:43:19;;;;;;;75.37;35.37;;;0.20;1.00;;;;;;10393530;28;20400;-84
2023/12/08 05:48:40;;;;;;;74.93;35.30;;;0.20;99.90;;;;;;10385840;28;20196;-84
2023/12/08 05:54:02;;;;;;;77.97;35.17;;;0.20;99.90;;;;;;10371252;28;20242;-82
2023/12/08 05:59:24;;;;;;;84.53;38.13;;;0.10;1.00;;;;;;10398922;28;20195;-84
2023/12/08 06:04:45;;;;;;;73.57;33.60;;;0.10;99.90;;;;;;10384286;28;20234;-82
2023/12/08 06:10:08;;;;;;;82.00;34.47;;;0.20;99.90;;;;;;10382901;28;20208;-83
2023/12/08 06:15:29;;;;;;;86.37;36.43;;;0.30;99.90;;;;;;10398745;28;20449;-84
2023/12/08 06:20:51;;;;;;;109.60;39.17;;;0.30;99.90;;;;;;10412015;28;20213;-84
2023/12/08 06:26:12;;;;;;;103.43;40.43;;;0.30;99.90;;;;;;10383829;28;20206;-83
2023/12/08 06:31:33;;;;;;;103.20;41.27;;;0.30;1.00;;;;;;10370497;28;20199;-85
2023/12/08 06:36:55;;;;;;;105.27;41.23;;;0.30;1.00;;;;;;10382479;28;20269;-85
2023/12/08 06:42:16;;;;;;;114.23;42.83;;;0.20;1.00;;;;;;10397037;28;20205;-84
2023/12/08 06:47:37;;;;;;;120.37;47.20;;;0.20;1.00;;;;;;10396547;28;20488;-84
2023/12/08 06:52:59;;;;;;;123.77;48.07;;;0.20;1.00;;;;;;10396193;28;20285;-84
2023/12/08 06:58:20;;;;;;;102.80;41.37;;;0.20;1.00;;;;;;10396375;28;20209;-83
2023/12/08 07:03:42;;;;;;;99.77;38.53;;;0.10;1.00;;;;;;10395002;28;20210;-85
2023/12/08 07:09:03;;;;;;;101.43;38.53;;;0.10;1.00;;;;;;10409832;28;20201;-85
2023/12/08 07:14:24;;;;;;;105.67;41.90;;;0.00;1.00;;;;;;10381850;28;20557;-85
2023/12/08 07:19:46;;;;;;;113.20;45.13;;;0.00;1.00;;;;;;10381965;28;20249;-82
2023/12/08 07:25:09;;;;;;;96.93;40.23;;;0.00;1.00;;;;;;10381005;28;20205;-84
2023/12/08 07:30:30;;;;;;;93.10;38.57;;;0.10;1.00;;;;;;10367296;28;20211;-84
2023/12/08 07:35:52;;;;;;;108.23;39.37;;;0.00;1.00;;;;;;10379954;28;20398;-86
2023/12/08 07:41:16;;;;;;;105.90;42.13;;;0.00;1.00;;;;;;10381415;28;20195;-87
2023/12/08 07:46:37;;;;;;;114.77;44.77;;;0.00;1.00;;;;;;10381317;28;20197;-87
2023/12/08 07:51:59;;;;;;;117.37;43.10;;;0.00;1.00;;;;;;10408701;28;20228;-88
2023/12/08 07:57:20;;;;;;;119.73;44.17;;;0.00;1.00;;;;;;10408892;28;20521;-86
2023/12/08 08:02:43;;;;;;;111.60;43.70;;;0.00;1.00;;;;;;10394484;28;20491;-84
2023/12/08 08:08:04;;;;;;;117.80;44.57;;;0.10;1.00;;;;;;10379459;28;20204;-87
2023/12/08 08:13:26;;;;;;;132.70;51.73;;;0.10;1.00;;;;;;10358624;28;20289;-85
2023/12/08 08:18:47;;;;;;;147.47;52.27;;;0.10;1.00;;;;;;10395115;28;20241;-85
2023/12/08 08:24:08;;;;;;;155.70;59.23;;;0.10;1.00;;;;;;10363505;28;20387;-86
2023/12/08 08:29:30;;;;;;;137.30;53.33;;;0.10;1.00;;;;;;10352070;28;20254;-86
2023/12/08 08:34:52;;;;;;;138.80;55.73;;;0.00;1.00;;;;;;10391674;28;20243;-84
2023/12/08 08:40:15;;;;;;;145.13;58.63;;;0.00;1.00;;;;;;10384082;28;20244;-85
2023/12/08 08:45:36;;;;;;;160.83;61.97;;;0.00;1.00;;;;;;10411320;28;20203;-83
2023/12/08 08:50:58;;;;;;;159.83;64.10;;;-0.10;99.90;;;;;;10382764;28;20597;-85
2023/12/08 08:56:19;;;;;;;161.30;61.33;;;-0.10;1.00;;;;;;10396085;28;20308;-83
2023/12/08 09:01:42;;;;;;;150.93;57.30;;;-0.20;1.00;;;;;;10396721;28;20218;-85
2023/12/08 09:07:03;;;;;;;150.37;60.00;;;-0.30;1.00;;;;;;10410824;28;20250;-85
2023/12/08 09:12:24;;;;;;;149.10;56.00;;;-0.40;1.00;;;;;;10385653;28;20206;-84
2023/12/08 09:17:46;;;;;;;148.93;60.50;;;-0.40;1.00;;;;;;10395949;28;20197;-80
2023/12/08 09:23:07;;;;;;;154.60;58.57;;;-0.40;1.00;;;;;;10408900;28;20214;-81
2023/12/08 09:28:29;;;;;;;135.83;54.93;;;-0.40;1.00;;;;;;10394949;28;20543;-89
2023/12/08 09:33:51;;;;;;;153.67;59.97;;;-0.20;99.90;;;;;;10409483;28;20242;-82
2023/12/08 09:39:12;;;;;;;140.07;52.90;;;-0.30;1.00;;;;;;10393967;28;20442;-86
2023/12/08 09:44:34;;;;;;;145.27;56.53;;;-0.30;1.00;;;;;;10409267;28;20523;-87
2023/12/08 09:49:57;;;;;;;132.40;51.93;;;-0.30;1.00;;;;;;10396064;28;20194;-89
2023/12/08 09:55:20;;;;;;;138.87;53.07;;;-0.30;49.60;;;;;;10382881;28;20261;-86
2023/12/08 10:01:10;;;;;;;128.77;50.40;;;-0.30;1.00;;;;;;10407685;28;20195;-86
2023/12/08 10:06:33;;;;;;;108.73;45.37;;;-0.30;1.00;;;;;;10409744;28;20355;-79
2023/12/08 10:11:54;;;;;;;105.73;45.13;;;-0.30;99.90;;;;;;10420503;28;20199;-81
2023/12/08 10:17:16;;;;;;;103.00;44.03;;;-0.20;1.00;;;;;;10426377;28;20230;-79
2023/12/08 10:22:48;;;;;;;120.07;48.77;;;-0.10;99.90;;;;;;10393498;28;20199;-80
2023/12/08 10:28:11;;;;;;;104.37;46.10;;;-0.20;1.00;;;;;;10377751;28;20248;-81
2023/12/08 10:33:32;;;;;;;104.10;45.90;;;-0.10;99.90;;;;;;10378316;28;20221;-84
2023/12/08 10:38:54;;;;;;;103.47;43.97;;;-0.20;1.00;;;;;;10405137;28;20215;-83
2023/12/08 10:44:19;;;;;;;96.33;44.30;;;-0.20;99.90;;;;;;10389800;28;20212;-82
2023/12/08 10:49:41;;;;;;;95.53;43.47;;;-0.20;1.00;;;;;;10395000;28;20290;-84
2023/12/08 10:55:03;;;;;;;109.73;46.60;;;-0.20;1.00;;;;;;10408326;28;20573;-83
2023/12/08 11:00:27;;;;;;;101.20;43.50;;;-0.40;99.90;;;;;;10375573;28;20502;-83
2023/12/08 11:06:08;;;;;;;101.23;43.83;;;-0.30;99.90;;;;;;10376299;28;20206;-86
2023/12/08 11:11:31;;;;;;;110.60;43.93;;;-0.10;1.00;;;;;;10390618;28;20216;-86
2023/12/08 11:17:00;;;;;;;110.97;46.90;;;-0.20;1.00;;;;;;10407954;28;20309;-83
2023/12/08 11:22:21;;;;;;;116.23;49.60;;;-0.20;1.00;;;;;;10377076;28;20447;-88
2023/12/08 11:28:13;;;;;;;119.37;48.17;;;-0.40;1.00;;;;;;10390464;28;20457;-82
2023/12/08 11:34:02;;;;;;;102.87;46.93;;;-0.20;1.00;;;;;;10389720;28;20227;-84
2023/12/08 11:39:38;;;;;;;119.87;51.13;;;-0.20;99.90;;;;;;10369702;28;20211;-86
2023/12/08 11:45:00;;;;;;;107.37;44.13;;;-0.40;1.00;;;;;;10389140;28;20207;-85
2023/12/08 11:50:24;;;;;;;110.43;47.17;;;-0.40;1.00;;;;;;10377650;28;20215;-84
2023/12/08 11:55:46;;;;;;;110.33;45.83;;;-0.30;26.30;;;;;;10390785;28;20227;-86
2023/12/08 12:01:10;;;;;;;127.03;49.47;;;-0.40;1.00;;;;;;10377083;28;20223;-84
2023/12/08 12:06:32;;;;;;;127.43;48.07;;;-0.70;1.00;;;;;;10404801;28;20205;-81
2023/12/08 12:11:55;;;;;;;133.30;53.00;;;-0.70;24.30;;;;;;10367404;28;20206;-84
2023/12/08 12:17:16;;;;;;;122.47;50.10;;;-0.60;99.90;;;;;;10392970;28;20550;-81
2023/12/08 12:22:39;;;;;;;129.03;50.37;;;-0.70;99.90;;;;;;10403003;28;20197;-85
2023/12/08 12:28:01;;;;;;;135.63;50.23;;;-0.80;99.90;;;;;;10354738;28;20211;-83
2023/12/08 12:33:22;;;;;;;141.37;53.37;;;-0.80;1.00;;;;;;10391754;28;20252;-84
2023/12/08 12:38:43;;;;;;;135.63;50.97;;;-0.70;99.90;;;;;;10373430;28;20194;-85
2023/12/08 12:44:04;;;;;;;138.13;50.77;;;-0.80;1.00;;;;;;10388260;28;20204;-85
2023/12/08 12:49:26;;;;;;;133.50;48.87;;;-0.80;1.00;;;;;;10388609;28;20202;-83
2023/12/08 12:54:47;;;;;;;130.47;52.40;;;-0.90;99.90;;;;;;10388254;28;20243;-85
2023/12/08 13:00:09;;;;;;;121.53;45.57;;;-0.90;1.00;;;;;;10374630;28;20202;-85
2023/12/08 13:05:31;;;;;;;119.90;44.17;;;-0.90;1.00;;;;;;10387594;28;20593;-82
2023/12/08 13:10:53;;;;;;;125.77;45.90;;;-1.10;1.00;;;;;;10389227;28;20215;-86
2023/12/08 13:16:15;;;;;;;115.80;43.87;;;-1.20;99.90;;;;;;10390480;28;20230;-84
2023/12/08 13:21:37;;;;;;;117.83;44.23;;;-1.20;1.00;;;;;;10390434;28;20725;-84
2023/12/08 13:26:58;;;;;;;117.20;44.63;;;-1.30;99.90;;;;;;10406949;28;20218;-84
2023/12/08 13:32:19;;;;;;;113.40;41.93;;;-1.40;99.90;;;;;;10413299;28;20278;-84
2023/12/08 13:37:42;;;;;;;111.60;44.03;;;-1.40;99.90;;;;;;10381984;28;20284;-86
2023/12/08 13:43:03;;;;;;;118.73;43.10;;;-1.40;1.00;;;;;;10408439;28;20366;-87
2023/12/08 13:48:24;;;;;;;113.33;43.00;;;-1.40;85.10;;;;;;10418470;28;20488;-86
2023/12/08 13:53:46;;;;;;;117.17;44.57;;;-1.40;1.00;;;;;;10395353;28;20257;-85
2023/12/08 13:59:10;;;;;;;125.23;47.03;;;-1.50;1.00;;;;;;10380325;28;20209;-82
2023/12/08 14:04:31;;;;;;;112.60;44.40;;;-1.50;99.90;;;;;;10394155;28;20348;-84
2023/12/08 14:09:52;;;;;;;112.73;46.77;;;-1.60;1.00;;;;;;10384947;28;20225;-84
2023/12/08 14:15:14;;;;;;;97.83;42.13;;;-1.60;1.00;;;;;;10406218;28;20249;-90
2023/12/08 14:20:35;;;;;;;100.30;39.13;;;-1.60;94.10;;;;;;10387634;28;20222;-78
2023/12/08 14:25:56;;;;;;;100.80;41.20;;;-1.60;99.90;;;;;;10391882;28;20226;-83
2023/12/08 14:31:18;;;;;;;133.23;49.00;;;-1.60;1.00;;;;;;10396429;28;20211;-83
2023/12/08 14:36:39;;;;;;;113.23;42.97;;;-1.70;1.00;;;;;;10394410;28;20256;-86
2023/12/08 14:42:00;;;;;;;88.83;37.83;;;-1.80;99.90;;;;;;10377832;28;20203;-91
2023/12/08 14:47:22;;;;;;;100.60;40.27;;;-2.10;1.00;;;;;;10394232;28;20206;-83
2023/12/08 14:52:43;;;;;;;93.17;38.10;;;-2.00;1.00;;;;;;10392903;28;20271;-83
2023/12/08 14:58:05;;;;;;;91.57;36.17;;;-2.00;99.90;;;;;;10405720;28;20244;-83
2023/12/08 15:03:27;;;;;;;85.90;36.43;;;-2.00;99.90;;;;;;10379065;28;20193;-92
2023/12/08 15:08:48;;;;;;;91.40;35.97;;;-2.10;99.90;;;;;;10394059;28;20585;-87
2023/12/08 15:14:10;;;;;;;88.00;35.83;;;-2.00;1.00;;;;;;10390600;28;20398;-84
2023/12/08 15:19:32;;;;;;;85.73;35.27;;;-2.20;99.90;;;;;;10388290;28;20224;-85
2023/12/08 16:40:10;;;;;;;88.40;37.83;;;-2.70;1.00;;;;;;9865080;30;20571;-80
2023/12/08 16:45:34;;;;;;;98.20;38.23;;;-2.70;1.00;;;;;;9865681;30;20232;-79
2023/12/08 16:50:55;;;;;;;102.03;41.77;;;-2.50;1.00;;;;;;9865416;30;20198;-80
2023/12/08 16:56:18;;;;;;;93.97;40.17;;;-2.50;99.90;;;;;;9868847;30;20237;-80
2023/12/08 17:01:39;;;;;;;99.40;40.97;;;-2.60;1.00;;;;;;9863279;30;20509;-79
2023/12/08 17:07:00;;;;;;;100.27;39.03;;;-2.40;1.00;;;;;;9895254;30;20499;-79
2023/12/08 17:12:21;;;;;;;95.13;38.40;;;-2.40;1.00;;;;;;9882307;30;20206;-80
2023/12/08 17:17:42;;;;;;;93.67;37.40;;;-2.40;99.90;;;;;;9871284;30;20467;-81
2023/12/08 17:23:04;;;;;;;100.97;39.20;;;-2.30;99.90;;;;;;9882006;30;20213;-82
2023/12/08 17:28:25;;;;;;;104.33;41.03;;;-2.40;99.90;;;;;;9896966;30;20233;-80
2023/12/08 17:33:47;;;;;;;110.67;44.73;;;-2.30;1.00;;;;;;9880727;30;20243;-81
2023/12/08 17:39:08;;;;;;;109.47;44.00;;;-2.20;99.90;;;;;;9895340;30;20211;-80
2023/12/08 17:44:33;;;;;;;112.87;43.80;;;-2.10;1.00;;;;;;9886591;30;20284;-80
2023/12/08 17:49:55;;;;;;;106.63;44.00;;;-2.10;99.90;;;;;;9881114;30;20531;-80
2023/12/08 17:55:16;;;;;;;107.67;42.03;;;-2.20;1.00;;;;;;9881276;30;20258;-79
2023/12/08 18:00:37;;;;;;;94.20;40.63;;;-2.20;1.00;;;;;;9895207;30;20195;-79
2023/12/08 18:05:59;;;;;;;114.97;46.00;;;-2.10;1.00;;;;;;9894144;30;20525;-80
2023/12/08 18:11:21;;;;;;;90.93;40.20;;;-2.00;21.40;;;;;;9881189;30;20218;-81
2023/12/08 18:16:44;;;;;;;114.40;43.90;;;-2.00;99.90;;;;;;9880685;30;20235;-79
2023/12/08 18:22:06;;;;;;;107.57;41.37;;;-2.00;1.00;;;;;;9892623;30;20389;-79
2023/12/08 18:27:28;;;;;;;91.30;36.87;;;-2.00;99.90;;;;;;9894348;30;20207;-80
2023/12/08 18:32:53;;;;;;;86.30;34.60;;;-1.90;1.00;;;;;;9891883;30;20527;-79
2023/12/08 18:38:14;;;;;;;78.73;32.30;;;-1.90;1.00;;;;;;9893208;30;20234;-80
2023/12/08 18:43:35;;;;;;;86.00;34.50;;;-1.80;1.00;;;;;;9871942;30;20683;-79
2023/12/08 18:48:58;;;;;;;87.17;35.73;;;-1.80;1.00;;;;;;9893189;30;20208;-82
2023/12/08 18:54:20;;;;;;;100.37;40.80;;;-1.90;1.00;;;;;;9866191;30;20239;-80
2023/12/08 18:59:41;;;;;;;109.13;40.93;;;-2.00;30.30;;;;;;9880314;30;20223;-82
2023/12/08 19:05:02;;;;;;;111.20;43.07;;;-1.90;99.90;;;;;;9878483;30;20218;-80
2023/12/08 19:10:23;;;;;;;115.67;41.97;;;-1.90;1.00;;;;;;9892338;30;20210;-79
2023/12/08 19:15:45;;;;;;;122.93;46.20;;;-1.80;1.00;;;;;;9890612;30;20241;-80
2023/12/08 19:21:07;;;;;;;124.20;42.60;;;-1.90;45.70;;;;;;9878573;30;20206;-79
2023/12/08 19:26:29;;;;;;;121.87;43.37;;;-1.90;1.00;;;;;;9890981;30;20211;-80
2023/12/08 19:31:50;;;;;;;125.37;47.83;;;-1.80;1.00;;;;;;9866128;30;20206;-80
2023/12/08 19:37:12;;;;;;;122.73;45.10;;;-1.80;99.90;;;;;;9878686;30;20237;-80
2023/12/08 19:42:33;;;;;;;129.63;45.60;;;-1.80;99.90;;;;;;9866606;30;20261;-79
2023/12/08 19:47:55;;;;;;;143.53;47.73;;;-1.80;1.00;;;;;;9878522;30;20206;-80
2023/12/08 19:53:16;;;;;;;123.83;44.03;;;-1.80;99.40;;;;;;9889846;30;20229;-80
2023/12/08 19:58:37;;;;;;;139.63;49.03;;;-1.80;1.00;;;;;;9890666;30;20594;-79
2023/12/08 20:03:59;;;;;;;140.70;48.33;;;-1.80;1.00;;;;;;9889308;30;20277;-79
2023/12/08 20:09:20;;;;;;;131.57;46.40;;;-1.70;4.50;;;;;;9877236;30;20215;-80
2023/12/08 20:14:42;;;;;;;140.93;46.00;;;-1.70;1.00;;;;;;9877890;30;20275;-81
2023/12/08 20:20:04;;;;;;;149.93;49.73;;;-1.70;99.90;;;;;;9876687;30;20302;-80
2023/12/08 20:25:25;;;;;;;139.90;50.20;;;-1.80;99.90;;;;;;9890098;30;20547;-79
2023/12/08 20:30:47;;;;;;;134.80;45.93;;;-1.70;41.90;;;;;;9888862;30;20281;-81
2023/12/08 20:36:09;;;;;;;149.13;50.90;;;-1.60;99.90;;;;;;9883808;30;20238;-79
2023/12/08 20:41:30;;;;;;;134.10;48.10;;;-1.60;1.00;;;;;;9875400;30;20254;-80
2023/12/08 20:46:54;;;;;;;138.60;48.43;;;-1.60;99.90;;;;;;9853189;30;20219;-79
2023/12/08 20:52:15;;;;;;;134.27;48.53;;;-1.60;99.90;;;;;;9897309;30;20202;-80
2023/12/08 20:57:36;;;;;;;135.93;51.33;;;-1.60;1.00;;;;;;9882935;30;20482;-79
2023/12/08 21:02:58;;;;;;;134.97;47.60;;;-1.60;1.00;;;;;;9896917;30;20204;-82
2023/12/08 21:08:20;;;;;;;151.10;50.67;;;-1.70;99.90;;;;;;9882907;30;20219;-81
2023/12/08 21:13:41;;;;;;;136.50;51.57;;;-1.60;1.00;;;;;;9884025;30;20277;-80
2023/12/08 21:19:03;;;;;;;165.13;56.30;;;-1.60;99.90;;;;;;9895595;30;20231;-80
2023/12/08 21:24:24;;;;;;;137.97;51.10;;;-1.70;1.00;;;;;;9883499;30;20511;-81
2023/12/08 21:29:50;;;;;;;138.73;50.00;;;-1.70;1.00;;;;;;9895546;30;20214;-81
2023/12/08 21:35:12;;;;;;;139.30;50.57;;;-1.70;99.90;;;;;;9883207;30;20543;-82
2023/12/08 21:40:35;;;;;;;142.30;52.83;;;-1.70;99.90;;;;;;9891176;30;20257;-81
2023/12/08 21:45:57;;;;;;;149.67;55.77;;;-1.70;1.00;;;;;;9859135;30;20215;-79
2023/12/08 21:51:18;;;;;;;141.47;53.20;;;-1.60;1.00;;;;;;9846147;30;20246;-80
2023/12/08 21:56:40;;;;;;;139.80;51.40;;;-1.60;99.90;;;;;;9851648;30;20326;-79
2023/12/08 22:02:02;;;;;;;135.97;53.67;;;-1.50;99.90;;;;;;9882324;30;20206;-79
2023/12/08 22:07:24;;;;;;;134.93;52.30;;;-1.60;1.00;;;;;;9868526;30;20443;-80
2023/12/08 22:12:45;;;;;;;137.60;50.97;;;-1.50;1.00;;;;;;9869102;30;20202;-80
2023/12/08 22:18:06;;;;;;;134.30;50.93;;;-1.50;99.90;;;;;;9889534;30;20234;-79
2023/12/08 22:23:28;;;;;;;125.40;48.67;;;-1.60;99.90;;;;;;9879534;30;20583;-81
2023/12/08 22:28:49;;;;;;;133.90;52.63;;;-1.50;1.00;;;;;;9867485;30;20349;-81
2023/12/08 22:34:11;;;;;;;133.30;49.93;;;-1.60;99.90;;;;;;9881714;30;20252;-80
2023/12/08 22:39:32;;;;;;;115.93;47.00;;;-1.50;1.00;;;;;;9891923;30;20281;-80
2023/12/08 22:44:54;;;;;;;130.37;49.37;;;-1.60;99.90;;;;;;9846258;30;20571;-80
2023/12/08 22:50:15;;;;;;;122.40;48.13;;;-1.60;99.90;;;;;;9874881;30;20519;-80
2023/12/08 22:55:36;;;;;;;125.53;50.70;;;-1.60;1.00;;;;;;9892804;30;20217;-81
2023/12/08 23:00:57;;;;;;;129.87;51.67;;;-1.70;1.00;;;;;;9862647;30;20214;-79
2023/12/08 23:06:19;;;;;;;118.13;47.33;;;-1.70;1.00;;;;;;9879533;30;20225;-80
2023/12/08 23:11:40;;;;;;;128.50;47.97;;;-1.60;1.00;;;;;;9843934;30;20349;-80
2023/12/08 23:17:02;;;;;;;122.57;47.00;;;-1.70;1.00;;;;;;9863225;30;20221;-80
2023/12/08 23:22:24;;;;;;;125.67;48.30;;;-1.60;63.30;;;;;;9892332;30;20251;-80
2023/12/08 23:27:46;;;;;;;121.63;47.37;;;-1.60;1.00;;;;;;9877295;30;20256;-80
2023/12/08 23:33:07;;;;;;;124.17;46.37;;;-1.60;1.00;;;;;;9863915;30;20252;-80
2023/12/08 23:38:29;;;;;;;103.67;44.63;;;-1.60;1.00;;;;;;9889665;30;20420;-79
2023/12/08 23:43:50;;;;;;;96.73;41.80;;;-1.60;1.00;;;;;;9856335;30;20235;-79
2023/12/08 23:49:13;;;;;;;117.50;45.50;;;-1.60;1.00;;;;;;9874942;30;20291;-80
2023/12/08 23:54:34;;;;;;;111.53;47.13;;;-1.70;99.90;;;;;;9890514;30;20207;-80
2023/12/08 23:59:56;;;;;;;111.40;44.63;;;-1.60;1.00;;;;;;9874033;30;20226;-80
